Time;durP1;ratioP1;P1;durP2;ratioP2;P2;SDS_P1;SDS_P2;PMS_P1;PMS_P2;Temp;Humidity;BMP_temperature;BMP_pressure;BME280_temperature;BME280_humidity;BME280_pressure;Samples;Min_cycle;Max_cycle;Signal;HPM_P1;HPM_P2
2023/12/06 00:01:56;;;;;;;12.23;5.70;;;;;2.90;100283.00;;;;5043250;28;20240;-72
2023/12/06 00:04:42;;;;;;;12.83;6.73;;;;;2.90;100280.00;;;;5038519;28;20228;-72
2023/12/06 00:07:28;;;;;;;18.73;7.50;;;;;2.90;100279.00;;;;5036927;28;20232;-74
2023/12/06 00:10:15;;;;;;;15.13;8.07;;;;;2.80;100271.00;;;;5036002;28;20595;-72
2023/12/06 00:13:02;;;;;;;10.30;5.73;;;;;2.90;100271.00;;;;5038833;28;20287;-72
2023/12/06 00:15:49;;;;;;;12.97;6.60;;;;;2.90;100279.00;;;;5042775;28;22417;-72
2023/12/06 00:18:35;;;;;;;14.57;6.47;;;;;2.90;100282.00;;;;5037969;28;20244;-70
2023/12/06 00:21:21;;;;;;;11.47;6.23;;;;;2.80;100292.00;;;;5039968;28;20246;-72
2023/12/06 00:24:08;;;;;;;13.83;6.80;;;;;2.90;100285.00;;;;5046009;28;20250;-72
2023/12/06 00:26:55;;;;;;;10.97;6.33;;;;;2.80;100289.00;;;;5047471;28;20809;-71
2023/12/06 00:29:42;;;;;;;12.37;6.37;;;;;2.90;100285.00;;;;5044805;28;20271;-72
2023/12/06 00:32:29;;;;;;;12.23;6.37;;;;;2.90;100301.00;;;;5041810;28;20738;-72
2023/12/06 00:35:15;;;;;;;15.87;7.73;;;;;2.70;100284.00;;;;5043194;28;20224;-71
2023/12/06 00:38:02;;;;;;;9.37;6.17;;;;;2.80;100288.00;;;;5037483;28;20996;-73
2023/12/06 00:40:49;;;;;;;13.33;6.87;;;;;2.70;100299.00;;;;5045279;28;20232;-72
2023/12/06 00:43:35;;;;;;;13.37;5.73;;;;;2.70;100297.00;;;;5041309;28;20282;-71
2023/12/06 00:46:24;;;;;;;14.87;8.10;;;;;2.70;100296.00;;;;5034308;28;20253;-73
2023/12/06 00:49:11;;;;;;;17.07;8.43;;;;;2.70;100301.00;;;;5043073;28;20306;-71
2023/12/06 00:51:58;;;;;;;12.07;5.93;;;;;2.70;100303.00;;;;5038304;28;20995;-70
2023/12/06 00:54:45;;;;;;;15.23;7.10;;;;;2.70;100304.00;;;;5047396;28;20255;-72
2023/12/06 00:57:32;;;;;;;12.03;7.03;;;;;2.70;100308.00;;;;5040622;28;20314;-72
2023/12/06 01:00:18;;;;;;;11.00;6.10;;;;;2.70;100314.00;;;;5046374;28;20293;-72
2023/12/06 01:03:07;;;;;;;16.43;5.80;;;;;2.80;100316.00;;;;5041316;28;20992;-71
2023/12/06 01:05:54;;;;;;;11.07;6.23;;;;;2.70;100305.00;;;;5044727;28;20300;-71
2023/12/06 01:08:41;;;;;;;11.87;6.17;;;;;2.70;100324.00;;;;5044913;28;20701;-71
2023/12/06 01:11:27;;;;;;;18.77;8.30;;;;;2.70;100324.00;;;;5046603;28;20235;-71
2023/12/06 01:14:14;;;;;;;12.90;7.50;;;;;2.70;100330.00;;;;5043684;28;20274;-73
2023/12/06 01:17:00;;;;;;;13.60;6.80;;;;;2.60;100333.00;;;;5030436;28;20893;-72
2023/12/06 01:19:48;;;;;;;11.17;6.27;;;;;2.60;100333.00;;;;5044624;28;20855;-71
2023/12/06 01:22:35;;;;;;;16.60;7.73;;;;;2.70;100335.00;;;;5035735;28;20230;-71
2023/12/06 01:25:21;;;;;;;10.27;6.57;;;;;2.70;100337.00;;;;5043716;28;20713;-70
2023/12/06 01:28:08;;;;;;;14.80;6.90;;;;;2.70;100343.00;;;;5038085;28;20309;-71
2023/12/06 01:30:54;;;;;;;9.90;6.47;;;;;2.60;100347.00;;;;5041814;28;20371;-71
2023/12/06 01:33:41;;;;;;;11.77;5.57;;;;;2.70;100349.00;;;;5038891;28;20260;-70
2023/12/06 01:36:28;;;;;;;12.30;5.87;;;;;2.60;100353.00;;;;5046572;28;20238;-72
2023/12/06 01:39:15;;;;;;;12.27;6.40;;;;;2.50;100349.00;;;;5043670;28;20223;-69
2023/12/06 01:42:01;;;;;;;16.83;7.43;;;;;2.60;100354.00;;;;5043632;28;20230;-70
2023/12/06 01:44:47;;;;;;;14.97;6.63;;;;;2.60;100355.00;;;;5045041;28;20229;-72
2023/12/06 01:47:35;;;;;;;12.77;5.03;;;;;2.50;100378.00;;;;5042596;28;20228;-70
2023/12/06 01:50:22;;;;;;;9.50;5.73;;;;;2.50;100378.00;;;;5043756;28;20240;-70
2023/12/06 01:53:10;;;;;;;12.03;5.77;;;;;2.50;100368.00;;;;5045501;28;20346;-71
2023/12/06 01:55:56;;;;;;;14.80;6.63;;;;;2.40;100381.00;;;;5042371;28;20613;-72
2023/12/06 01:58:43;;;;;;;11.20;6.17;;;;;2.40;100380.00;;;;5045156;28;20226;-71
2023/12/06 02:01:30;;;;;;;10.13;7.33;;;;;2.50;100372.00;;;;5037971;28;20356;-71
2023/12/06 02:04:16;;;;;;;16.47;6.90;;;;;2.50;100384.00;;;;5045059;28;20743;-72
2023/12/06 02:07:06;;;;;;;14.03;6.07;;;;;2.40;100380.00;;;;5035637;28;20252;-72
2023/12/06 02:09:54;;;;;;;13.57;7.77;;;;;2.40;100379.00;;;;5041215;28;20259;-70
2023/12/06 02:12:40;;;;;;;13.67;6.53;;;;;2.40;100394.00;;;;5031334;28;20294;-71
2023/12/06 02:15:26;;;;;;;15.87;7.77;;;;;2.50;100393.00;;;;5044819;28;20592;-70
2023/12/06 02:18:13;;;;;;;15.83;6.90;;;;;2.40;100383.00;;;;5039229;28;20227;-71
2023/12/06 02:20:59;;;;;;;13.17;7.60;;;;;2.40;100390.00;;;;5043974;28;20235;-72
2023/12/06 02:23:47;;;;;;;12.83;6.63;;;;;2.50;100389.00;;;;5037657;28;20728;-72
2023/12/06 02:26:34;;;;;;;9.97;6.03;;;;;2.50;100391.00;;;;5045588;28;20226;-70
2023/12/06 02:29:21;;;;;;;16.43;8.00;;;;;2.50;100404.00;;;;5043310;28;20256;-71
2023/12/06 02:32:07;;;;;;;17.00;8.03;;;;;2.50;100392.00;;;;5044937;28;20354;-70
2023/12/06 02:34:56;;;;;;;21.57;8.77;;;;;2.40;100401.00;;;;5038988;28;20224;-69
2023/12/06 02:37:45;;;;;;;18.57;8.67;;;;;2.40;100386.00;;;;5039338;28;20332;-70
2023/12/06 02:40:32;;;;;;;21.73;10.07;;;;;2.40;100387.00;;;;5042373;28;20232;-70
2023/12/06 02:43:20;;;;;;;16.33;9.30;;;;;2.40;100386.00;;;;5043341;28;20241;-70
2023/12/06 02:46:07;;;;;;;26.87;12.67;;;;;2.30;100394.00;;;;5036125;28;20296;-72
2023/12/06 02:48:54;;;;;;;19.07;8.47;;;;;2.30;100395.00;;;;5041594;28;20583;-70
2023/12/06 02:51:40;;;;;;;25.63;10.00;;;;;2.30;100385.00;;;;5038002;28;20282;-69
2023/12/06 02:54:27;;;;;;;21.87;11.90;;;;;2.30;100402.00;;;;5044579;28;20237;-70
2023/12/06 02:57:13;;;;;;;23.57;10.43;;;;;2.40;100412.00;;;;5043975;28;20757;-71
2023/12/06 03:00:01;;;;;;;30.50;10.23;;;;;2.30;100399.00;;;;5044911;28;20232;-70
2023/12/06 03:02:47;;;;;;;23.27;9.80;;;;;2.30;100402.00;;;;5038406;28;20355;-71
2023/12/06 03:05:34;;;;;;;23.80;9.90;;;;;2.40;100403.00;;;;5044923;28;20606;-70
2023/12/06 03:08:20;;;;;;;19.20;9.67;;;;;2.40;100395.00;;;;5044143;28;20240;-69
2023/12/06 03:11:07;;;;;;;21.77;9.23;;;;;2.40;100403.00;;;;5043132;28;20266;-71
2023/12/06 03:13:53;;;;;;;15.93;9.23;;;;;2.30;100404.00;;;;5042523;28;20231;-70
2023/12/06 03:16:40;;;;;;;19.13;11.00;;;;;2.30;100395.00;;;;5041504;28;20291;-71
2023/12/06 03:19:27;;;;;;;20.63;9.37;;;;;2.30;100409.00;;;;5043523;28;20710;-70
2023/12/06 03:22:13;;;;;;;22.50;10.23;;;;;2.30;100411.00;;;;5043842;28;20264;-70
2023/12/06 03:25:00;;;;;;;25.50;10.37;;;;;2.30;100405.00;;;;5039975;28;20252;-70
2023/12/06 03:27:46;;;;;;;24.30;10.63;;;;;2.30;100409.00;;;;5036569;28;20241;-73
2023/12/06 03:30:33;;;;;;;26.57;10.00;;;;;2.30;100411.00;;;;5040375;28;20737;-74
2023/12/06 03:33:24;;;;;;;15.47;9.33;;;;;2.30;100425.00;;;;5036533;28;20300;-71
2023/12/06 03:36:12;;;;;;;19.40;10.60;;;;;2.30;100418.00;;;;5042464;28;20593;-71
2023/12/06 03:38:58;;;;;;;21.70;7.90;;;;;2.30;100417.00;;;;5037114;28;20250;-71
2023/12/06 03:41:45;;;;;;;20.63;9.23;;;;;2.20;100420.00;;;;5037231;28;20234;-70
2023/12/06 03:44:31;;;;;;;19.07;9.03;;;;;2.20;100420.00;;;;5043701;28;20282;-72
2023/12/06 03:47:18;;;;;;;24.33;8.40;;;;;2.30;100434.00;;;;5044268;28;20306;-69
2023/12/06 03:50:06;;;;;;;32.67;10.53;;;;;2.30;100432.00;;;;5045100;28;20690;-70
2023/12/06 03:52:53;;;;;;;25.40;10.83;;;;;2.30;100429.00;;;;5048669;28;20725;-71
2023/12/06 03:55:39;;;;;;;17.70;9.50;;;;;2.30;100438.00;;;;5042123;28;20227;-69
2023/12/06 03:58:25;;;;;;;23.77;10.67;;;;;2.30;100429.00;;;;5044812;28;20753;-72
2023/12/06 04:01:12;;;;;;;24.50;10.57;;;;;2.20;100425.00;;;;5046567;28;20236;-71
2023/12/06 04:03:59;;;;;;;19.30;10.60;;;;;2.30;100431.00;;;;5044748;28;20333;-70
2023/12/06 04:06:46;;;;;;;26.70;11.53;;;;;2.20;100435.00;;;;5043596;28;20222;-69
2023/12/06 04:09:32;;;;;;;19.23;9.70;;;;;2.20;100439.00;;;;5047292;28;20274;-70
2023/12/06 04:12:19;;;;;;;24.80;11.87;;;;;2.30;100435.00;;;;5046539;28;20282;-69
2023/12/06 04:15:06;;;;;;;18.27;10.17;;;;;2.30;100446.00;;;;5043073;28;20608;-70
2023/12/06 04:17:52;;;;;;;19.67;11.33;;;;;2.20;100444.00;;;;5041093;28;20236;-69
2023/12/06 04:20:38;;;;;;;22.90;10.97;;;;;2.20;100452.00;;;;5047255;28;20242;-71
2023/12/06 04:23:26;;;;;;;21.00;10.77;;;;;2.20;100444.00;;;;5044609;28;20285;-71
2023/12/06 04:26:12;;;;;;;17.70;8.63;;;;;2.20;100451.00;;;;5048255;28;20292;-72
2023/12/06 04:28:59;;;;;;;21.87;10.97;;;;;2.20;100448.00;;;;5044168;28;20336;-70
2023/12/06 04:31:45;;;;;;;22.27;10.53;;;;;2.20;100461.00;;;;5039883;28;20238;-71
2023/12/06 04:34:33;;;;;;;24.87;11.20;;;;;2.30;100457.00;;;;5045846;28;20318;-70
2023/12/06 04:37:19;;;;;;;29.03;13.17;;;;;2.20;100464.00;;;;5040850;28;20246;-71
2023/12/06 04:40:09;;;;;;;25.70;11.83;;;;;2.20;100470.00;;;;5041836;28;20235;-69
2023/12/06 04:42:55;;;;;;;20.20;10.70;;;;;2.20;100462.00;;;;5041180;28;20633;-75
2023/12/06 04:45:42;;;;;;;23.97;11.13;;;;;2.20;100479.00;;;;5045875;28;20279;-73
2023/12/06 04:48:28;;;;;;;19.70;11.27;;;;;2.20;100479.00;;;;5046323;28;20308;-71
2023/12/06 04:51:16;;;;;;;23.37;11.63;;;;;2.20;100473.00;;;;5046836;28;20232;-72
2023/12/06 04:54:02;;;;;;;24.53;12.30;;;;;2.20;100480.00;;;;5043343;28;20230;-72
2023/12/06 04:56:50;;;;;;;18.50;9.73;;;;;2.20;100479.00;;;;5042274;28;20247;-71
2023/12/06 04:59:37;;;;;;;19.20;10.33;;;;;2.20;100490.00;;;;5045733;28;20490;-69
2023/12/06 05:02:23;;;;;;;22.00;12.23;;;;;2.20;100495.00;;;;5045774;28;20283;-70
2023/12/06 05:05:12;;;;;;;27.53;10.83;;;;;2.20;100484.00;;;;5037596;28;20286;-71
2023/12/06 05:07:59;;;;;;;24.87;11.60;;;;;2.20;100489.00;;;;5052171;28;20251;-71
2023/12/06 05:10:45;;;;;;;26.80;11.60;;;;;2.20;100493.00;;;;5043280;28;20241;-70
2023/12/06 05:13:33;;;;;;;21.83;11.10;;;;;2.20;100500.00;;;;5044473;28;20229;-70
2023/12/06 05:16:19;;;;;;;20.47;11.07;;;;;2.20;100492.00;;;;5042534;28;20230;-73
2023/12/06 05:19:06;;;;;;;18.73;9.67;;;;;2.20;100501.00;;;;5037970;28;20230;-70
2023/12/06 05:21:53;;;;;;;24.23;11.10;;;;;2.30;100503.00;;;;5039342;28;20302;-70
2023/12/06 05:24:39;;;;;;;15.33;9.37;;;;;2.30;100504.00;;;;5050632;28;20236;-72
2023/12/06 05:27:26;;;;;;;23.40;11.17;;;;;2.30;100504.00;;;;5046377;28;20603;-71
2023/12/06 05:30:15;;;;;;;22.80;9.93;;;;;2.30;100516.00;;;;5041841;28;20228;-70
2023/12/06 05:33:01;;;;;;;21.73;11.00;;;;;2.30;100519.00;;;;5041952;28;20229;-70
2023/12/06 05:35:47;;;;;;;20.73;10.77;;;;;2.30;100517.00;;;;5040941;28;20228;-70
2023/12/06 05:38:34;;;;;;;21.83;10.57;;;;;2.30;100528.00;;;;5045056;28;20231;-72
2023/12/06 05:41:20;;;;;;;18.50;11.23;;;;;2.30;100533.00;;;;5042824;28;20259;-71
2023/12/06 05:44:07;;;;;;;20.37;10.70;;;;;2.30;100532.00;;;;5039039;28;20601;-72
2023/12/06 05:46:55;;;;;;;23.67;10.40;;;;;2.40;100536.00;;;;5040202;28;20325;-69
2023/12/06 05:49:42;;;;;;;25.57;10.47;;;;;2.40;100541.00;;;;5045556;28;20278;-70
2023/12/06 05:52:28;;;;;;;17.63;9.27;;;;;2.40;100541.00;;;;5043002;28;20244;-72
2023/12/06 05:55:16;;;;;;;27.30;12.63;;;;;2.40;100536.00;;;;5045413;28;20358;-70
2023/12/06 05:58:02;;;;;;;19.20;9.60;;;;;2.40;100539.00;;;;5045422;28;20749;-71
2023/12/06 06:00:48;;;;;;;18.37;10.80;;;;;2.40;100542.00;;;;5045297;28;20243;-70
2023/12/06 06:03:36;;;;;;;20.23;11.80;;;;;2.40;100535.00;;;;5044421;28;20567;-70
2023/12/06 06:06:23;;;;;;;22.67;9.97;;;;;2.40;100528.00;;;;5045351;28;20343;-71
2023/12/06 06:09:10;;;;;;;20.93;12.10;;;;;2.40;100545.00;;;;5045462;28;20320;-71
2023/12/06 06:11:56;;;;;;;19.13;9.47;;;;;2.40;100547.00;;;;5045180;28;20301;-71
2023/12/06 06:14:42;;;;;;;25.63;12.00;;;;;2.40;100553.00;;;;5044766;28;20216;-72
2023/12/06 06:17:28;;;;;;;24.03;10.73;;;;;2.40;100547.00;;;;5045456;28;20234;-70
2023/12/06 06:20:16;;;;;;;19.17;9.30;;;;;2.40;100547.00;;;;5045529;28;20307;-70
2023/12/06 06:23:02;;;;;;;19.60;10.23;;;;;2.40;100557.00;;;;5042052;28;20237;-73
2023/12/06 06:25:48;;;;;;;23.53;10.80;;;;;2.40;100566.00;;;;5037302;28;20239;-71
2023/12/06 06:28:35;;;;;;;22.07;11.17;;;;;2.40;100564.00;;;;5037088;28;20355;-68
2023/12/06 06:31:21;;;;;;;24.00;11.37;;;;;2.40;100581.00;;;;5042503;28;20274;-72
2023/12/06 06:34:08;;;;;;;17.00;9.03;;;;;2.40;100581.00;;;;5041441;28;20715;-70
2023/12/06 06:36:56;;;;;;;21.03;9.77;;;;;2.40;100577.00;;;;5040197;28;20812;-72
2023/12/06 06:39:42;;;;;;;21.53;10.90;;;;;2.40;100574.00;;;;5042066;28;20231;-71
2023/12/06 06:42:29;;;;;;;18.40;8.73;;;;;2.50;100580.00;;;;5044852;28;20261;-69
2023/12/06 06:45:15;;;;;;;18.33;9.03;;;;;2.40;100590.00;;;;5030717;28;20911;-71
2023/12/06 06:48:02;;;;;;;15.00;8.87;;;;;2.50;100581.00;;;;5032077;28;20319;-70
2023/12/06 06:50:48;;;;;;;18.17;9.80;;;;;2.50;100587.00;;;;5044140;28;20233;-69
2023/12/06 06:53:36;;;;;;;20.00;9.57;;;;;2.40;100591.00;;;;5044267;28;20242;-70
2023/12/06 06:56:22;;;;;;;19.43;9.97;;;;;2.50;100593.00;;;;5045244;28;20235;-70
2023/12/06 06:59:09;;;;;;;20.90;11.03;;;;;2.40;100589.00;;;;5038222;28;20232;-71
2023/12/06 07:01:56;;;;;;;17.13;8.60;;;;;2.50;100591.00;;;;5046333;28;20830;-70
2023/12/06 07:04:42;;;;;;;19.80;9.93;;;;;2.60;100607.00;;;;5044682;28;20291;-71
2023/12/06 07:07:29;;;;;;;13.57;8.03;;;;;2.50;100594.00;;;;5036610;28;20225;-72
2023/12/06 07:10:17;;;;;;;22.40;10.67;;;;;2.60;100606.00;;;;5039006;28;20310;-72
2023/12/06 07:13:04;;;;;;;16.80;8.87;;;;;2.60;100603.00;;;;5042409;28;20841;-71
2023/12/06 07:15:50;;;;;;;20.13;8.77;;;;;2.60;100611.00;;;;5035752;28;20226;-73
2023/12/06 07:18:37;;;;;;;15.47;9.83;;;;;2.60;100616.00;;;;5044537;28;20222;-72
2023/12/06 07:21:23;;;;;;;20.17;8.43;;;;;2.60;100613.00;;;;5039881;28;20230;-72
2023/12/06 07:24:10;;;;;;;23.13;10.83;;;;;2.60;100625.00;;;;5044876;28;20236;-70
2023/12/06 07:26:57;;;;;;;20.97;11.03;;;;;2.70;100624.00;;;;5043321;28;20311;-71
2023/12/06 07:29:44;;;;;;;15.03;8.57;;;;;2.60;100625.00;;;;5048642;28;20236;-70
2023/12/06 07:32:29;;;;;;;15.17;9.07;;;;;2.60;100629.00;;;;5044771;28;20249;-72
2023/12/06 07:35:28;;;;;;;18.47;9.60;;;;;2.70;100635.00;;;;5044276;28;20723;-70
2023/12/06 07:38:15;;;;;;;14.47;9.03;;;;;2.70;100641.00;;;;5033542;28;20847;-72
2023/12/06 07:41:02;;;;;;;14.53;9.70;;;;;2.70;100648.00;;;;5046271;28;20231;-72
2023/12/06 07:43:53;;;;;;;16.83;7.90;;;;;2.70;100640.00;;;;5051071;28;20878;-71
2023/12/06 07:46:39;;;;;;;18.23;9.37;;;;;2.70;100652.00;;;;5043930;28;20230;-72
2023/12/06 07:49:26;;;;;;;13.90;7.53;;;;;2.80;100637.00;;;;5043162;28;20236;-71
2023/12/06 07:52:12;;;;;;;15.07;7.77;;;;;2.70;100653.00;;;;5040166;28;20228;-71
2023/12/06 07:54:59;;;;;;;14.03;9.03;;;;;2.70;100648.00;;;;5039027;28;20727;-71
2023/12/06 07:57:46;;;;;;;12.80;7.20;;;;;2.80;100656.00;;;;5046468;28;20224;-72
2023/12/06 08:00:33;;;;;;;14.83;8.93;;;;;2.90;100649.00;;;;5046898;28;20300;-72
2023/12/06 08:03:21;;;;;;;12.63;7.50;;;;;3.00;100662.00;;;;5043841;28;20767;-72
2023/12/06 08:06:09;;;;;;;13.17;8.40;;;;;3.00;100655.00;;;;5033874;28;20699;-71
2023/12/06 08:08:55;;;;;;;16.93;7.97;;;;;3.00;100658.00;;;;5046247;28;20317;-72
2023/12/06 08:11:42;;;;;;;12.03;7.77;;;;;3.00;100663.00;;;;5037256;28;20607;-72
2023/12/06 08:14:29;;;;;;;14.03;6.80;;;;;2.90;100667.00;;;;5047049;28;20741;-72
2023/12/06 08:17:17;;;;;;;12.60;6.10;;;;;2.90;100666.00;;;;5037463;28;20589;-73
2023/12/06 08:20:07;;;;;;;13.57;8.10;;;;;2.90;100670.00;;;;5039658;28;20215;-75
2023/12/06 08:22:53;;;;;;;10.93;8.13;;;;;2.90;100671.00;;;;5039915;28;20295;-72
2023/12/06 08:25:40;;;;;;;16.03;7.70;;;;;3.00;100670.00;;;;5043049;28;20239;-76
2023/12/06 08:28:27;;;;;;;18.03;7.57;;;;;3.00;100679.00;;;;5040364;28;20480;-74
2023/12/06 08:31:13;;;;;;;11.23;7.20;;;;;3.10;100684.00;;;;5039313;28;20232;-74
2023/12/06 08:34:01;;;;;;;17.50;7.60;;;;;3.10;100687.00;;;;5043402;28;20799;-75
2023/12/06 08:36:47;;;;;;;12.70;7.47;;;;;3.00;100690.00;;;;5042109;28;20233;-74
2023/12/06 08:39:34;;;;;;;11.73;7.20;;;;;3.00;100700.00;;;;5037798;28;20236;-73
2023/12/06 08:42:21;;;;;;;14.47;6.53;;;;;3.10;100693.00;;;;5038221;28;20239;-73
2023/12/06 08:45:08;;;;;;;16.80;7.50;;;;;3.10;100694.00;;;;5034954;28;20315;-73
2023/12/06 08:47:54;;;;;;;15.20;8.13;;;;;3.20;100699.00;;;;5037387;28;20236;-74
2023/12/06 08:50:42;;;;;;;14.33;7.77;;;;;3.20;100688.00;;;;5051235;28;20620;-73
2023/12/06 08:53:29;;;;;;;10.63;6.77;;;;;3.20;100704.00;;;;5036923;28;20228;-74
2023/12/06 08:56:16;;;;;;;14.83;8.60;;;;;3.20;100713.00;;;;5042506;28;20633;-73
2023/12/06 08:59:04;;;;;;;17.10;8.87;;;;;3.20;100714.00;;;;5039835;28;20233;-74
2023/12/06 09:01:50;;;;;;;14.57;6.57;;;;;3.20;100708.00;;;;5043990;28;20244;-74
2023/12/06 09:04:36;;;;;;;15.67;7.97;;;;;3.20;100701.00;;;;5042233;28;20322;-73
2023/12/06 09:07:25;;;;;;;13.47;6.63;;;;;3.30;100710.00;;;;5042782;28;20327;-75
2023/12/06 09:10:12;;;;;;;12.90;7.63;;;;;3.30;100707.00;;;;5041430;28;20241;-73
2023/12/06 09:12:58;;;;;;;13.03;7.80;;;;;3.40;100715.00;;;;5045842;28;20235;-73
2023/12/06 09:15:45;;;;;;;13.37;7.63;;;;;3.40;100718.00;;;;5043470;28;20271;-74
2023/12/06 09:18:31;;;;;;;19.33;9.27;;;;;3.40;100718.00;;;;5039021;28;20232;-74
2023/12/06 09:21:18;;;;;;;14.37;8.83;;;;;3.50;100723.00;;;;5047206;28;20240;-74
2023/12/06 09:24:07;;;;;;;13.17;8.10;;;;;3.50;100723.00;;;;5045114;28;20244;-73
2023/12/06 09:26:54;;;;;;;17.70;7.57;;;;;3.50;100713.00;;;;5038541;28;20237;-74
2023/12/06 09:29:40;;;;;;;13.27;8.20;;;;;3.50;100719.00;;;;5038131;28;20319;-75
2023/12/06 09:32:27;;;;;;;16.73;9.07;;;;;3.60;100731.00;;;;5045692;28;20326;-75
2023/12/06 09:35:14;;;;;;;17.10;8.20;;;;;3.60;100729.00;;;;5039692;28;20298;-74
2023/12/06 09:38:05;;;;;;;15.53;7.57;;;;;3.60;100725.00;;;;5030206;28;20240;-72
2023/12/06 09:41:00;;;;;;;15.93;9.03;;;;;3.60;100728.00;;;;5034889;28;20240;-73
2023/12/06 09:43:48;;;;;;;10.83;7.23;;;;;3.70;100741.00;;;;5043190;28;20729;-73
2023/12/06 09:46:34;;;;;;;16.03;7.53;;;;;3.70;100742.00;;;;5045832;28;20262;-75
2023/12/06 09:49:20;;;;;;;13.07;6.87;;;;;3.80;100737.00;;;;5048617;28;20241;-74
2023/12/06 09:52:11;;;;;;;11.77;7.77;;;;;3.80;100751.00;;;;5042730;28;20299;-74
2023/12/06 09:54:59;;;;;;;10.87;6.93;;;;;3.80;100738.00;;;;5042676;28;20232;-73
2023/12/06 09:57:48;;;;;;;12.47;7.10;;;;;3.90;100734.00;;;;5037216;28;20225;-74
2023/12/06 10:00:35;;;;;;;13.23;8.20;;;;;3.90;100736.00;;;;5038369;28;20237;-76
2023/12/06 10:03:22;;;;;;;12.73;7.13;;;;;4.00;100743.00;;;;5039888;28;20261;-76
2023/12/06 10:06:09;;;;;;;15.40;7.27;;;;;4.00;100745.00;;;;5041325;28;20608;-77
2023/12/06 10:08:55;;;;;;;13.87;8.27;;;;;4.10;100742.00;;;;5041939;28;20241;-76
2023/12/06 10:11:42;;;;;;;10.77;7.00;;;;;4.10;100745.00;;;;5042652;28;20232;-75
2023/12/06 10:14:29;;;;;;;11.03;7.03;;;;;4.10;100744.00;;;;5041616;28;20250;-74
2023/12/06 10:17:16;;;;;;;15.40;8.33;;;;;4.10;100758.00;;;;5038969;28;20355;-74
2023/12/06 10:20:04;;;;;;;11.93;7.63;;;;;4.10;100759.00;;;;5043278;28;20232;-74
2023/12/06 10:22:50;;;;;;;13.23;7.83;;;;;4.10;100764.00;;;;5033876;28;20248;-72
2023/12/06 10:25:40;;;;;;;13.80;8.80;;;;;4.20;100760.00;;;;5036787;28;20240;-74
2023/12/06 10:28:27;;;;;;;13.57;8.20;;;;;4.20;100769.00;;;;5045209;28;20251;-74
2023/12/06 10:31:14;;;;;;;14.13;7.60;;;;;4.20;100759.00;;;;5032836;28;20240;-73
2023/12/06 10:34:02;;;;;;;20.23;8.10;;;;;4.20;100754.00;;;;5035864;28;20241;-74
2023/12/06 10:36:49;;;;;;;12.57;6.80;;;;;4.20;100760.00;;;;5021041;28;20244;-73
2023/12/06 10:39:38;;;;;;;14.90;8.07;;;;;4.20;100756.00;;;;5045135;28;20367;-73
2023/12/06 10:42:28;;;;;;;14.60;8.03;;;;;4.30;100761.00;;;;5028327;28;20779;-74
2023/12/06 10:45:16;;;;;;;11.60;6.70;;;;;4.30;100765.00;;;;5041508;28;20232;-75
2023/12/06 10:48:07;;;;;;;14.77;7.33;;;;;4.30;100758.00;;;;5039987;28;20228;-75
2023/12/06 10:50:58;;;;;;;10.97;7.37;;;;;4.30;100759.00;;;;5034880;28;20241;-72
2023/12/06 10:53:56;;;;;;;12.73;7.20;;;;;4.40;100765.00;;;;5044376;28;20225;-74
2023/12/06 10:56:44;;;;;;;12.97;7.40;;;;;4.50;100771.00;;;;5037612;28;20361;-72
2023/12/06 10:59:31;;;;;;;14.73;7.47;;;;;4.50;100758.00;;;;5033250;28;20278;-76
2023/12/06 11:02:18;;;;;;;11.27;6.53;;;;;4.50;100773.00;;;;5035393;28;20299;-74
2023/12/06 11:05:08;;;;;;;16.00;8.13;;;;;4.50;100771.00;;;;5041686;28;20336;-76
2023/12/06 11:08:09;;;;;;;12.07;7.50;;;;;4.50;100775.00;;;;5043606;28;20236;-73
2023/12/06 11:11:11;;;;;;;12.87;7.50;;;;;4.50;100767.00;;;;5040278;28;20235;-74
2023/12/06 11:14:09;;;;;;;10.13;6.80;;;;;4.50;100773.00;;;;5042536;28;20228;-74
2023/12/06 11:17:07;;;;;;;11.77;7.17;;;;;4.50;100772.00;;;;5034184;28;20298;-75
2023/12/06 11:19:54;;;;;;;10.97;7.33;;;;;4.50;100774.00;;;;5044523;28;20294;-73
2023/12/06 11:22:43;;;;;;;10.43;6.23;;;;;4.50;100778.00;;;;5037517;28;20228;-74
2023/12/06 11:25:43;;;;;;;13.70;8.10;;;;;4.50;100778.00;;;;5037145;28;20261;-75
2023/12/06 11:28:39;;;;;;;13.17;8.20;;;;;4.50;100789.00;;;;5036365;28;20312;-75
2023/12/06 11:31:35;;;;;;;17.70;7.40;;;;;4.50;100786.00;;;;5039147;28;20319;-74
2023/12/06 11:34:33;;;;;;;11.80;7.97;;;;;4.50;100783.00;;;;5042806;28;20296;-73
2023/12/06 11:37:19;;;;;;;13.03;7.33;;;;;4.60;100780.00;;;;5041001;28;20266;-72
2023/12/06 11:40:17;;;;;;;13.23;6.63;;;;;4.60;100785.00;;;;5043458;28;20224;-69
2023/12/06 11:43:05;;;;;;;13.93;8.53;;;;;4.60;100781.00;;;;5041264;28;20267;-71
2023/12/06 11:46:02;;;;;;;20.10;9.33;;;;;4.50;100780.00;;;;5038395;28;20276;-71
2023/12/06 11:48:50;;;;;;;14.93;8.33;;;;;4.50;100779.00;;;;5037152;28;20233;-71
2023/12/06 11:51:37;;;;;;;13.23;7.43;;;;;4.50;100779.00;;;;5037139;28;20228;-74
2023/12/06 11:54:24;;;;;;;15.50;8.87;;;;;4.60;100774.00;;;;5038980;28;20232;-71
2023/12/06 11:57:11;;;;;;;13.53;8.00;;;;;4.60;100776.00;;;;5034281;28;20746;-71
2023/12/06 11:59:58;;;;;;;16.00;8.43;;;;;4.60;100777.00;;;;5039621;28;20249;-72
2023/12/06 12:02:45;;;;;;;14.70;8.67;;;;;4.60;100779.00;;;;5020531;28;20230;-72
2023/12/06 12:05:51;;;;;;;13.17;7.90;;;;;4.60;100778.00;;;;5028122;28;20762;-72
2023/12/06 12:08:39;;;;;;;13.10;7.50;;;;;4.60;100780.00;;;;5030405;28;20323;-75
2023/12/06 12:11:25;;;;;;;13.60;8.50;;;;;4.60;100774.00;;;;5036859;28;20227;-72
2023/12/06 12:14:13;;;;;;;14.30;9.00;;;;;4.70;100781.00;;;;5035908;28;20251;-75
2023/12/06 12:17:00;;;;;;;14.53;8.13;;;;;4.70;100780.00;;;;5043174;28;20320;-73
2023/12/06 12:19:46;;;;;;;20.50;8.10;;;;;4.70;100785.00;;;;5041701;28;20228;-74
2023/12/06 12:22:43;;;;;;;16.50;8.83;;;;;4.70;100776.00;;;;5040587;28;20243;-74
2023/12/06 12:25:29;;;;;;;15.37;9.17;;;;;4.70;100783.00;;;;5034962;28;20236;-73
2023/12/06 12:28:17;;;;;;;14.73;8.20;;;;;4.70;100784.00;;;;5043220;28;20378;-73
2023/12/06 12:31:07;;;;;;;12.67;7.63;;;;;4.70;100783.00;;;;5044202;28;20236;-74
2023/12/06 12:33:54;;;;;;;14.50;8.13;;;;;4.80;100779.00;;;;5046160;28;20233;-75
2023/12/06 12:36:42;;;;;;;15.30;8.70;;;;;4.70;100783.00;;;;5044560;28;20295;-75
2023/12/06 12:39:29;;;;;;;15.57;8.60;;;;;4.70;100786.00;;;;5044744;28;20253;-75
2023/12/06 12:42:16;;;;;;;17.77;9.50;;;;;4.70;100794.00;;;;5045042;28;20236;-74
2023/12/06 12:45:03;;;;;;;14.63;9.10;;;;;4.80;100796.00;;;;5038113;28;20272;-73
2023/12/06 12:47:51;;;;;;;11.90;7.87;;;;;4.90;100791.00;;;;5042061;28;20240;-73
2023/12/06 12:50:38;;;;;;;13.43;8.10;;;;;4.90;100794.00;;;;5050557;28;20232;-74
2023/12/06 12:53:27;;;;;;;15.77;8.87;;;;;4.90;100800.00;;;;5043605;28;20236;-73
2023/12/06 12:56:14;;;;;;;14.00;8.13;;;;;4.90;100793.00;;;;5041939;28;20852;-72
2023/12/06 12:59:00;;;;;;;14.03;8.53;;;;;4.90;100791.00;;;;5044138;28;20228;-72
2023/12/06 13:01:48;;;;;;;13.83;8.77;;;;;5.00;100810.00;;;;5045589;28;20229;-74
2023/12/06 13:04:36;;;;;;;20.27;9.70;;;;;5.00;100805.00;;;;5040647;28;20583;-75
2023/12/06 13:07:23;;;;;;;15.07;8.53;;;;;5.00;100813.00;;;;5039242;28;20240;-74
2023/12/06 13:10:13;;;;;;;14.57;8.50;;;;;5.00;100815.00;;;;5044228;28;20233;-76
2023/12/06 13:13:00;;;;;;;14.97;8.40;;;;;5.00;100810.00;;;;5046215;28;20247;-75
2023/12/06 13:15:47;;;;;;;15.97;9.13;;;;;4.90;100812.00;;;;5038582;28;20328;-74
2023/12/06 13:18:33;;;;;;;18.37;9.07;;;;;5.00;100811.00;;;;5036985;28;20307;-73
2023/12/06 13:21:21;;;;;;;12.17;7.97;;;;;5.00;100817.00;;;;5045610;28;20237;-74
2023/12/06 13:24:09;;;;;;;16.97;9.37;;;;;4.90;100814.00;;;;5044388;28;20248;-74
2023/12/06 13:26:56;;;;;;;13.13;8.33;;;;;5.00;100819.00;;;;5046190;28;20236;-72
2023/12/06 13:29:42;;;;;;;14.90;8.50;;;;;5.00;100810.00;;;;5057355;28;20313;-75
2023/12/06 13:32:28;;;;;;;15.83;8.93;;;;;4.90;100822.00;;;;5068609;28;20239;-73
2023/12/06 13:35:15;;;;;;;13.67;7.30;;;;;5.00;100815.00;;;;5064732;28;20237;-72
2023/12/06 13:38:13;;;;;;;12.47;7.80;;;;;4.90;100823.00;;;;5065839;28;20265;-75
2023/12/06 13:41:00;;;;;;;15.63;7.10;;;;;4.90;100815.00;;;;5069911;28;20271;-74
2023/12/06 13:43:46;;;;;;;19.43;8.33;;;;;5.00;100821.00;;;;5063881;28;20219;-76
2023/12/06 13:46:34;;;;;;;16.07;8.93;;;;;4.90;100822.00;;;;5065832;28;20212;-77